sensor_id;sensor_type;location;lat;lon;timestamp;P1;durP1;ratioP1;P2;durP2;ratioP2
9827;SDS011;4953;48.952;9.442;2022-11-14T05:00:24;21.73;;;14.10;;
9827;SDS011;4953;48.952;9.442;2022-11-14T05:02:51;26.37;;;15.53;;
9827;SDS011;4953;48.952;9.442;2022-11-14T05:05:18;21.97;;;13.37;;
9827;SDS011;4953;48.952;9.442;2022-11-14T05:07:45;23.27;;;13.53;;
9827;SDS011;4953;48.952;9.442;2022-11-14T05:10:12;24.20;;;14.37;;
9827;SDS011;4953;48.952;9.442;2022-11-14T05:12:39;26.13;;;15.03;;
9827;SDS011;4953;48.952;9.442;2022-11-14T05:15:06;22.97;;;14.50;;
9827;SDS011;4953;48.952;9.442;2022-11-14T05:17:35;22.60;;;15.07;;
9827;SDS011;4953;48.952;9.442;2022-11-14T05:20:02;22.70;;;14.03;;
9827;SDS011;4953;48.952;9.442;2022-11-14T05:22:29;19.60;;;13.10;;
9827;SDS011;4953;48.952;9.442;2022-11-14T05:24:56;19.13;;;12.67;;
9827;SDS011;4953;48.952;9.442;2022-11-14T05:27:23;21.50;;;12.23;;
9827;SDS011;4953;48.952;9.442;2022-11-14T05:29:49;19.13;;;12.70;;
9827;SDS011;4953;48.952;9.442;2022-11-14T05:32:16;19.30;;;12.87;;
9827;SDS011;4953;48.952;9.442;2022-11-14T05:34:44;18.03;;;11.90;;
9827;SDS011;4953;48.952;9.442;2022-11-14T05:37:11;18.60;;;12.73;;
9827;SDS011;4953;48.952;9.442;2022-11-14T05:39:38;20.37;;;12.73;;
9827;SDS011;4953;48.952;9.442;2022-11-14T05:42:05;21.37;;;13.30;;
9827;SDS011;4953;48.952;9.442;2022-11-14T05:44:31;20.77;;;12.50;;
9827;SDS011;4953;48.952;9.442;2022-11-14T05:46:58;19.47;;;12.90;;
9827;SDS011;4953;48.952;9.442;2022-11-14T05:49:25;27.70;;;12.57;;
9827;SDS011;4953;48.952;9.442;2022-11-14T05:51:53;18.77;;;12.70;;
9827;SDS011;4953;48.952;9.442;2022-11-14T05:54:20;21.07;;;13.07;;
9827;SDS011;4953;48.952;9.442;2022-11-14T05:56:47;17.53;;;12.57;;
9827;SDS011;4953;48.952;9.442;2022-11-14T05:59:13;19.80;;;12.87;;
9827;SDS011;4953;48.952;9.442;2022-11-14T06:01:40;19.37;;;12.13;;
9827;SDS011;4953;48.952;9.442;2022-11-14T06:04:07;19.53;;;12.27;;
9827;SDS011;4953;48.952;9.442;2022-11-14T06:06:34;23.93;;;12.60;;
9827;SDS011;4953;48.952;9.442;2022-11-14T06:09:02;21.60;;;12.77;;
9827;SDS011;4953;48.952;9.442;2022-11-14T06:11:29;32.10;;;17.87;;
9827;SDS011;4953;48.952;9.442;2022-11-14T06:13:56;25.80;;;17.00;;
9827;SDS011;4953;48.952;9.442;2022-11-14T06:16:22;26.30;;;17.00;;
9827;SDS011;4953;48.952;9.442;2022-11-14T06:18:51;26.17;;;16.10;;
9827;SDS011;4953;48.952;9.442;2022-11-14T06:21:18;21.93;;;15.10;;
9827;SDS011;4953;48.952;9.442;2022-11-14T06:23:47;25.50;;;13.70;;
9827;SDS011;4953;48.952;9.442;2022-11-14T06:26:18;18.53;;;12.53;;
9827;SDS011;4953;48.952;9.442;2022-11-14T06:28:46;17.23;;;11.83;;
9827;SDS011;4953;48.952;9.442;2022-11-14T06:31:14;20.17;;;11.67;;
9827;SDS011;4953;48.952;9.442;2022-11-14T06:33:41;16.10;;;11.93;;
9827;SDS011;4953;48.952;9.442;2022-11-14T06:36:08;17.73;;;11.43;;
9827;SDS011;4953;48.952;9.442;2022-11-14T06:38:36;16.27;;;12.07;;
9827;SDS011;4953;48.952;9.442;2022-11-14T06:41:05;15.70;;;11.20;;
9827;SDS011;4953;48.952;9.442;2022-11-14T06:43:34;21.27;;;13.13;;
9827;SDS011;4953;48.952;9.442;2022-11-14T06:46:02;21.67;;;12.17;;
9827;SDS011;4953;48.952;9.442;2022-11-14T06:48:29;19.53;;;13.17;;
9827;SDS011;4953;48.952;9.442;2022-11-14T06:50:57;23.37;;;14.70;;
9827;SDS011;4953;48.952;9.442;2022-11-14T06:53:26;27.27;;;15.00;;
9827;SDS011;4953;48.952;9.442;2022-11-14T06:55:55;18.73;;;13.40;;
9827;SDS011;4953;48.952;9.442;2022-11-14T06:58:24;21.93;;;12.90;;
9827;SDS011;4953;48.952;9.442;2022-11-14T07:00:53;23.07;;;14.50;;
9827;SDS011;4953;48.952;9.442;2022-11-14T07:03:20;23.90;;;15.00;;
9827;SDS011;4953;48.952;9.442;2022-11-14T07:05:47;23.03;;;14.10;;
9827;SDS011;4953;48.952;9.442;2022-11-14T07:08:14;26.60;;;15.83;;
9827;SDS011;4953;48.952;9.442;2022-11-14T07:10:41;27.30;;;16.60;;
9827;SDS011;4953;48.952;9.442;2022-11-14T07:13:07;28.10;;;17.13;;
9827;SDS011;4953;48.952;9.442;2022-11-14T07:15:35;25.23;;;15.47;;
9827;SDS011;4953;48.952;9.442;2022-11-14T07:18:03;33.00;;;16.73;;
9827;SDS011;4953;48.952;9.442;2022-11-14T07:20:30;28.70;;;17.10;;
9827;SDS011;4953;48.952;9.442;2022-11-14T07:22:57;29.97;;;17.60;;
9827;SDS011;4953;48.952;9.442;2022-11-14T07:25:24;27.40;;;19.07;;
9827;SDS011;4953;48.952;9.442;2022-11-14T07:27:51;30.17;;;17.87;;
9827;SDS011;4953;48.952;9.442;2022-11-14T07:30:17;28.93;;;17.33;;
9827;SDS011;4953;48.952;9.442;2022-11-14T07:32:44;27.10;;;16.63;;
9827;SDS011;4953;48.952;9.442;2022-11-14T07:35:12;27.77;;;16.50;;
9827;SDS011;4953;48.952;9.442;2022-11-14T07:37:39;38.47;;;19.53;;
9827;SDS011;4953;48.952;9.442;2022-11-14T07:40:06;28.17;;;16.00;;
9827;SDS011;4953;48.952;9.442;2022-11-14T07:42:34;28.53;;;16.37;;
9827;SDS011;4953;48.952;9.442;2022-11-14T07:45:01;28.17;;;15.63;;
9827;SDS011;4953;48.952;9.442;2022-11-14T07:47:27;28.73;;;16.67;;
9827;SDS011;4953;48.952;9.442;2022-11-14T07:49:54;27.23;;;16.60;;
9827;SDS011;4953;48.952;9.442;2022-11-14T07:52:22;26.00;;;16.03;;
9827;SDS011;4953;48.952;9.442;2022-11-14T07:54:49;26.80;;;16.27;;
9827;SDS011;4953;48.952;9.442;2022-11-14T07:57:16;25.73;;;15.80;;
9827;SDS011;4953;48.952;9.442;2022-11-14T07:59:43;24.23;;;14.57;;
9827;SDS011;4953;48.952;9.442;2022-11-14T08:02:10;24.83;;;15.43;;
9827;SDS011;4953;48.952;9.442;2022-11-14T08:04:39;30.27;;;16.90;;
9827;SDS011;4953;48.952;9.442;2022-11-14T08:07:05;30.23;;;16.53;;
9827;SDS011;4953;48.952;9.442;2022-11-14T08:09:34;27.20;;;17.00;;
9827;SDS011;4953;48.952;9.442;2022-11-14T08:12:00;28.73;;;16.47;;
9827;SDS011;4953;48.952;9.442;2022-11-14T08:14:27;30.17;;;18.57;;
9827;SDS011;4953;48.952;9.442;2022-11-14T08:16:54;29.60;;;16.87;;
9827;SDS011;4953;48.952;9.442;2022-11-14T08:19:21;31.40;;;17.30;;
9827;SDS011;4953;48.952;9.442;2022-11-14T08:21:48;30.43;;;16.63;;
9827;SDS011;4953;48.952;9.442;2022-11-14T08:24:14;28.17;;;18.13;;
9827;SDS011;4953;48.952;9.442;2022-11-14T08:26:42;36.10;;;20.00;;
9827;SDS011;4953;48.952;9.442;2022-11-14T08:29:09;27.70;;;18.10;;
9827;SDS011;4953;48.952;9.442;2022-11-14T08:31:36;30.07;;;18.83;;
9827;SDS011;4953;48.952;9.442;2022-11-14T08:34:03;28.80;;;18.00;;
9827;SDS011;4953;48.952;9.442;2022-11-14T08:36:29;31.33;;;18.20;;
9827;SDS011;4953;48.952;9.442;2022-11-14T08:38:56;30.80;;;17.63;;
9827;SDS011;4953;48.952;9.442;2022-11-14T08:41:23;27.73;;;17.53;;
9827;SDS011;4953;48.952;9.442;2022-11-14T08:43:51;25.00;;;17.03;;
9827;SDS011;4953;48.952;9.442;2022-11-14T08:46:18;29.07;;;17.53;;
9827;SDS011;4953;48.952;9.442;2022-11-14T08:48:45;29.30;;;17.43;;
9827;SDS011;4953;48.952;9.442;2022-11-14T08:51:11;29.57;;;19.40;;
9827;SDS011;4953;48.952;9.442;2022-11-14T08:53:38;27.60;;;18.27;;
9827;SDS011;4953;48.952;9.442;2022-11-14T08:56:05;30.00;;;18.37;;
9827;SDS011;4953;48.952;9.442;2022-11-14T08:58:33;25.90;;;17.30;;
9827;SDS011;4953;48.952;9.442;2022-11-14T09:01:02;27.17;;;17.50;;
9827;SDS011;4953;48.952;9.442;2022-11-14T09:03:31;27.50;;;17.30;;
9827;SDS011;4953;48.952;9.442;2022-11-14T09:05:57;32.27;;;18.83;;
9827;SDS011;4953;48.952;9.442;2022-11-14T09:08:24;29.63;;;17.37;;
9827;SDS011;4953;48.952;9.442;2022-11-14T09:10:51;27.33;;;16.43;;
9827;SDS011;4953;48.952;9.442;2022-11-14T09:13:18;30.80;;;18.23;;
9827;SDS011;4953;48.952;9.442;2022-11-14T09:15:45;32.63;;;18.70;;
9827;SDS011;4953;48.952;9.442;2022-11-14T09:18:13;40.27;;;22.93;;
9827;SDS011;4953;48.952;9.442;2022-11-14T09:20:40;32.77;;;19.50;;
9827;SDS011;4953;48.952;9.442;2022-11-14T09:23:08;27.50;;;17.50;;
9827;SDS011;4953;48.952;9.442;2022-11-14T09:25:35;36.17;;;18.20;;
9827;SDS011;4953;48.952;9.442;2022-11-14T09:28:03;28.93;;;18.50;;
9827;SDS011;4953;48.952;9.442;2022-11-14T09:30:30;31.73;;;20.40;;
9827;SDS011;4953;48.952;9.442;2022-11-14T09:32:58;32.07;;;18.50;;
9827;SDS011;4953;48.952;9.442;2022-11-14T09:35:27;26.80;;;18.00;;
9827;SDS011;4953;48.952;9.442;2022-11-14T09:37:58;25.03;;;15.27;;
9827;SDS011;4953;48.952;9.442;2022-11-14T09:40:25;22.50;;;14.17;;
9827;SDS011;4953;48.952;9.442;2022-11-14T09:43:04;26.63;;;15.50;;
9827;SDS011;4953;48.952;9.442;2022-11-14T09:45:46;26.10;;;15.83;;
9827;SDS011;4953;48.952;9.442;2022-11-14T09:48:16;28.07;;;15.37;;
9827;SDS011;4953;48.952;9.442;2022-11-14T09:50:49;26.83;;;15.97;;
9827;SDS011;4953;48.952;9.442;2022-11-14T09:53:24;23.63;;;14.00;;
9827;SDS011;4953;48.952;9.442;2022-11-14T09:55:57;26.80;;;15.73;;
9827;SDS011;4953;48.952;9.442;2022-11-14T09:58:24;27.90;;;16.07;;
9827;SDS011;4953;48.952;9.442;2022-11-14T10:00:53;25.63;;;14.13;;
9827;SDS011;4953;48.952;9.442;2022-11-14T10:03:28;23.97;;;13.30;;
9827;SDS011;4953;48.952;9.442;2022-11-14T10:06:09;26.50;;;12.57;;
9827;SDS011;4953;48.952;9.442;2022-11-14T10:08:48;21.40;;;13.47;;
9827;SDS011;4953;48.952;9.442;2022-11-14T10:11:28;20.33;;;13.07;;
9827;SDS011;4953;48.952;9.442;2022-11-14T10:14:07;23.07;;;13.30;;
9827;SDS011;4953;48.952;9.442;2022-11-14T10:16:53;22.40;;;13.87;;
9827;SDS011;4953;48.952;9.442;2022-11-14T10:19:32;21.00;;;13.17;;
9827;SDS011;4953;48.952;9.442;2022-11-14T10:22:19;24.60;;;12.27;;
9827;SDS011;4953;48.952;9.442;2022-11-14T10:25:03;20.47;;;12.47;;
9827;SDS011;4953;48.952;9.442;2022-11-14T10:27:44;22.33;;;12.70;;
9827;SDS011;4953;48.952;9.442;2022-11-14T10:30:23;16.50;;;10.90;;
9827;SDS011;4953;48.952;9.442;2022-11-14T10:33:07;16.00;;;10.30;;
9827;SDS011;4953;48.952;9.442;2022-11-14T10:35:44;16.10;;;9.57;;
9827;SDS011;4953;48.952;9.442;2022-11-14T10:38:21;14.27;;;9.87;;
9827;SDS011;4953;48.952;9.442;2022-11-14T10:40:54;14.00;;;9.17;;
9827;SDS011;4953;48.952;9.442;2022-11-14T10:43:27;16.10;;;9.43;;
9827;SDS011;4953;48.952;9.442;2022-11-14T10:46:00;16.70;;;9.03;;
9827;SDS011;4953;48.952;9.442;2022-11-14T10:48:30;13.07;;;8.87;;
9827;SDS011;4953;48.952;9.442;2022-11-14T10:50:58;13.37;;;8.70;;
9827;SDS011;4953;48.952;9.442;2022-11-14T10:53:32;15.50;;;8.27;;
9827;SDS011;4953;48.952;9.442;2022-11-14T10:56:09;14.40;;;8.13;;
9827;SDS011;4953;48.952;9.442;2022-11-14T10:58:38;11.13;;;7.53;;
9827;SDS011;4953;48.952;9.442;2022-11-14T11:04:11;8.90;;;6.47;;
9827;SDS011;4953;48.952;9.442;2022-11-14T11:06:39;11.00;;;7.80;;
9827;SDS011;4953;48.952;9.442;2022-11-14T11:09:08;8.13;;;6.90;;
9827;SDS011;4953;48.952;9.442;2022-11-14T11:11:56;12.90;;;6.83;;
9827;SDS011;4953;48.952;9.442;2022-11-14T11:14:25;9.13;;;6.60;;
9827;SDS011;4953;48.952;9.442;2022-11-14T11:17:06;12.40;;;7.40;;
9827;SDS011;4953;48.952;9.442;2022-11-14T11:19:34;10.70;;;7.57;;
9827;SDS011;4953;48.952;9.442;2022-11-14T11:22:01;8.80;;;6.67;;
9827;SDS011;4953;48.952;9.442;2022-11-14T11:24:33;9.80;;;6.67;;
9827;SDS011;4953;48.952;9.442;2022-11-14T11:27:17;6.93;;;5.40;;
9827;SDS011;4953;48.952;9.442;2022-11-14T11:29:46;7.90;;;5.27;;
9827;SDS011;4953;48.952;9.442;2022-11-14T11:32:29;7.73;;;5.73;;
9827;SDS011;4953;48.952;9.442;2022-11-14T11:34:56;9.57;;;5.40;;
9827;SDS011;4953;48.952;9.442;2022-11-14T11:37:27;9.67;;;5.50;;
9827;SDS011;4953;48.952;9.442;2022-11-14T11:40:01;6.50;;;5.10;;
9827;SDS011;4953;48.952;9.442;2022-11-14T11:42:32;7.40;;;5.27;;
9827;SDS011;4953;48.952;9.442;2022-11-14T11:45:04;6.87;;;5.23;;
9827;SDS011;4953;48.952;9.442;2022-11-14T11:47:39;6.27;;;4.93;;
9827;SDS011;4953;48.952;9.442;2022-11-14T11:50:10;6.67;;;5.43;;
9827;SDS011;4953;48.952;9.442;2022-11-14T11:52:41;7.67;;;5.40;;
9827;SDS011;4953;48.952;9.442;2022-11-14T11:55:16;7.80;;;5.40;;
9827;SDS011;4953;48.952;9.442;2022-11-14T11:57:47;6.50;;;4.50;;
9827;SDS011;4953;48.952;9.442;2022-11-14T12:00:18;6.00;;;4.40;;
9827;SDS011;4953;48.952;9.442;2022-11-14T12:02:47;4.10;;;3.70;;
9827;SDS011;4953;48.952;9.442;2022-11-14T12:05:16;5.70;;;4.37;;
9827;SDS011;4953;48.952;9.442;2022-11-14T12:07:52;4.50;;;3.30;;
9827;SDS011;4953;48.952;9.442;2022-11-14T12:10:27;4.30;;;3.47;;
9827;SDS011;4953;48.952;9.442;2022-11-14T12:13:12;3.10;;;2.70;;
9827;SDS011;4953;48.952;9.442;2022-11-14T12:16:14;3.67;;;2.23;;
9827;SDS011;4953;48.952;9.442;2022-11-14T12:19:05;2.80;;;2.20;;
9827;SDS011;4953;48.952;9.442;2022-11-14T12:22:00;3.20;;;2.20;;
9827;SDS011;4953;48.952;9.442;2022-11-14T12:25:03;2.27;;;2.17;;
9827;SDS011;4953;48.952;9.442;2022-11-14T12:27:51;2.10;;;1.90;;
9827;SDS011;4953;48.952;9.442;2022-11-14T12:30:29;2.37;;;2.17;;
9827;SDS011;4953;48.952;9.442;2022-11-14T12:33:00;2.27;;;2.07;;
9827;SDS011;4953;48.952;9.442;2022-11-14T12:35:31;2.40;;;1.87;;
9827;SDS011;4953;48.952;9.442;2022-11-14T12:37:59;2.27;;;1.97;;
9827;SDS011;4953;48.952;9.442;2022-11-14T12:40:30;2.10;;;1.70;;
9827;SDS011;4953;48.952;9.442;2022-11-14T12:43:00;2.30;;;2.00;;
9827;SDS011;4953;48.952;9.442;2022-11-14T12:48:22;2.30;;;1.90;;
9827;SDS011;4953;48.952;9.442;2022-11-14T12:50:55;3.33;;;2.30;;
9827;SDS011;4953;48.952;9.442;2022-11-14T12:56:35;3.57;;;2.00;;
9827;SDS011;4953;48.952;9.442;2022-11-14T12:59:30;2.67;;;1.83;;
9827;SDS011;4953;48.952;9.442;2022-11-14T13:02:31;2.50;;;1.83;;
9827;SDS011;4953;48.952;9.442;2022-11-14T13:05:18;2.20;;;2.00;;
9827;SDS011;4953;48.952;9.442;2022-11-14T13:07:56;3.70;;;2.30;;
9827;SDS011;4953;48.952;9.442;2022-11-14T13:10:35;2.47;;;2.27;;
9827;SDS011;4953;48.952;9.442;2022-11-14T13:13:04;2.37;;;1.87;;
9827;SDS011;4953;48.952;9.442;2022-11-14T13:15:53;2.50;;;1.83;;
9827;SDS011;4953;48.952;9.442;2022-11-14T13:18:53;2.33;;;1.73;;
9827;SDS011;4953;48.952;9.442;2022-11-14T13:27:43;2.63;;;1.67;;
9827;SDS011;4953;48.952;9.442;2022-11-14T13:30:10;3.90;;;2.80;;
9827;SDS011;4953;48.952;9.442;2022-11-14T13:44:43;4.73;;;3.20;;
9827;SDS011;4953;48.952;9.442;2022-11-14T13:47:37;6.70;;;2.00;;
9827;SDS011;4953;48.952;9.442;2022-11-14T13:50:27;4.23;;;2.77;;
9827;SDS011;4953;48.952;9.442;2022-11-14T13:52:57;3.17;;;2.40;;
9827;SDS011;4953;48.952;9.442;2022-11-14T13:55:26;3.00;;;2.13;;
9827;SDS011;4953;48.952;9.442;2022-11-14T13:58:03;5.23;;;2.57;;
9827;SDS011;4953;48.952;9.442;2022-11-14T14:00:53;2.23;;;1.80;;
9827;SDS011;4953;48.952;9.442;2022-11-14T14:03:35;3.97;;;2.70;;
9827;SDS011;4953;48.952;9.442;2022-11-14T14:09:12;3.90;;;2.20;;
9827;SDS011;4953;48.952;9.442;2022-11-14T14:11:49;2.33;;;2.10;;
9827;SDS011;4953;48.952;9.442;2022-11-14T14:14:35;4.43;;;2.20;;
9827;SDS011;4953;48.952;9.442;2022-11-14T14:17:17;2.40;;;1.90;;
9827;SDS011;4953;48.952;9.442;2022-11-14T14:19:54;2.40;;;1.77;;
9827;SDS011;4953;48.952;9.442;2022-11-14T14:22:33;3.80;;;2.20;;
9827;SDS011;4953;48.952;9.442;2022-11-14T14:25:08;2.40;;;1.97;;
9827;SDS011;4953;48.952;9.442;2022-11-14T14:27:48;2.33;;;1.80;;
9827;SDS011;4953;48.952;9.442;2022-11-14T14:30:20;2.60;;;1.93;;
9827;SDS011;4953;48.952;9.442;2022-11-14T14:35:50;2.87;;;2.20;;
9827;SDS011;4953;48.952;9.442;2022-11-14T14:38:23;5.90;;;2.33;;
9827;SDS011;4953;48.952;9.442;2022-11-14T14:40:52;2.63;;;2.20;;
9827;SDS011;4953;48.952;9.442;2022-11-14T14:43:22;2.80;;;2.00;;
9827;SDS011;4953;48.952;9.442;2022-11-14T14:45:52;2.80;;;2.10;;
9827;SDS011;4953;48.952;9.442;2022-11-14T14:48:21;3.80;;;2.17;;
9827;SDS011;4953;48.952;9.442;2022-11-14T14:50:50;3.20;;;2.57;;
9827;SDS011;4953;48.952;9.442;2022-11-14T14:53:19;3.13;;;2.20;;
9827;SDS011;4953;48.952;9.442;2022-11-14T14:55:52;3.13;;;2.17;;
9827;SDS011;4953;48.952;9.442;2022-11-14T14:58:24;5.43;;;3.93;;
9827;SDS011;4953;48.952;9.442;2022-11-14T15:00:55;3.87;;;2.50;;
9827;SDS011;4953;48.952;9.442;2022-11-14T15:03:24;2.50;;;2.17;;
9827;SDS011;4953;48.952;9.442;2022-11-14T15:05:58;3.57;;;2.00;;
9827;SDS011;4953;48.952;9.442;2022-11-14T15:08:26;4.23;;;2.70;;
9827;SDS011;4953;48.952;9.442;2022-11-14T15:10:56;5.57;;;2.50;;
9827;SDS011;4953;48.952;9.442;2022-11-14T15:13:24;2.87;;;2.30;;
9827;SDS011;4953;48.952;9.442;2022-11-14T15:15:56;5.00;;;2.40;;
9827;SDS011;4953;48.952;9.442;2022-11-14T15:18:23;3.17;;;2.23;;
9827;SDS011;4953;48.952;9.442;2022-11-14T15:21:13;2.40;;;2.20;;
9827;SDS011;4953;48.952;9.442;2022-11-14T15:23:45;2.50;;;2.30;;
9827;SDS011;4953;48.952;9.442;2022-11-14T15:26:14;7.80;;;2.60;;
9827;SDS011;4953;48.952;9.442;2022-11-14T15:28:43;3.23;;;2.80;;
9827;SDS011;4953;48.952;9.442;2022-11-14T15:31:16;7.20;;;4.47;;
9827;SDS011;4953;48.952;9.442;2022-11-14T15:33:45;8.70;;;4.80;;
9827;SDS011;4953;48.952;9.442;2022-11-14T15:36:40;7.30;;;3.37;;
9827;SDS011;4953;48.952;9.442;2022-11-14T15:39:35;9.57;;;5.07;;
9827;SDS011;4953;48.952;9.442;2022-11-14T15:42:13;3.47;;;2.80;;
9827;SDS011;4953;48.952;9.442;2022-11-14T15:44:42;3.30;;;2.87;;
9827;SDS011;4953;48.952;9.442;2022-11-14T15:47:11;7.77;;;4.73;;
9827;SDS011;4953;48.952;9.442;2022-11-14T15:49:49;5.27;;;3.60;;
9827;SDS011;4953;48.952;9.442;2022-11-14T15:52:22;6.40;;;2.97;;
9827;SDS011;4953;48.952;9.442;2022-11-14T15:54:52;10.40;;;4.30;;
9827;SDS011;4953;48.952;9.442;2022-11-14T15:57:20;6.63;;;3.70;;
9827;SDS011;4953;48.952;9.442;2022-11-14T15:59:47;4.90;;;2.80;;
9827;SDS011;4953;48.952;9.442;2022-11-14T16:02:14;3.70;;;2.97;;
9827;SDS011;4953;48.952;9.442;2022-11-14T16:04:43;4.70;;;3.83;;
9827;SDS011;4953;48.952;9.442;2022-11-14T16:07:11;3.23;;;2.93;;
9827;SDS011;4953;48.952;9.442;2022-11-14T16:09:38;5.37;;;3.03;;
9827;SDS011;4953;48.952;9.442;2022-11-14T16:12:05;4.47;;;2.93;;
9827;SDS011;4953;48.952;9.442;2022-11-14T16:14:34;4.23;;;3.07;;
9827;SDS011;4953;48.952;9.442;2022-11-14T16:17:01;5.60;;;3.27;;
9827;SDS011;4953;48.952;9.442;2022-11-14T16:19:28;3.60;;;2.60;;
9827;SDS011;4953;48.952;9.442;2022-11-14T16:21:56;4.00;;;3.03;;
9827;SDS011;4953;48.952;9.442;2022-11-14T16:24:26;4.40;;;3.23;;
9827;SDS011;4953;48.952;9.442;2022-11-14T16:26:54;3.73;;;2.90;;
9827;SDS011;4953;48.952;9.442;2022-11-14T16:29:22;6.00;;;2.80;;
9827;SDS011;4953;48.952;9.442;2022-11-14T16:31:50;3.97;;;2.80;;
9827;SDS011;4953;48.952;9.442;2022-11-14T16:34:20;4.33;;;2.80;;
9827;SDS011;4953;48.952;9.442;2022-11-14T16:36:50;3.33;;;2.43;;
9827;SDS011;4953;48.952;9.442;2022-11-14T16:39:23;6.07;;;3.10;;
9827;SDS011;4953;48.952;9.442;2022-11-14T16:41:50;2.90;;;2.57;;
9827;SDS011;4953;48.952;9.442;2022-11-14T16:44:17;3.63;;;2.70;;
9827;SDS011;4953;48.952;9.442;2022-11-14T16:46:44;3.60;;;2.90;;
9827;SDS011;4953;48.952;9.442;2022-11-14T16:49:13;5.30;;;4.00;;
9827;SDS011;4953;48.952;9.442;2022-11-14T16:51:41;6.60;;;4.30;;
9827;SDS011;4953;48.952;9.442;2022-11-14T16:54:09;9.70;;;5.90;;
9827;SDS011;4953;48.952;9.442;2022-11-14T16:56:37;10.20;;;7.17;;
9827;SDS011;4953;48.952;9.442;2022-11-14T16:59:04;8.63;;;6.50;;
9827;SDS011;4953;48.952;9.442;2022-11-14T17:01:31;7.43;;;5.90;;
9827;SDS011;4953;48.952;9.442;2022-11-14T17:03:58;6.07;;;5.47;;
9827;SDS011;4953;48.952;9.442;2022-11-14T17:06:26;6.20;;;4.70;;
9827;SDS011;4953;48.952;9.442;2022-11-14T17:08:53;7.27;;;6.20;;
9827;SDS011;4953;48.952;9.442;2022-11-14T17:11:21;11.13;;;5.83;;
9827;SDS011;4953;48.952;9.442;2022-11-14T17:13:48;10.60;;;6.97;;
9827;SDS011;4953;48.952;9.442;2022-11-14T17:16:15;8.80;;;7.00;;
9827;SDS011;4953;48.952;9.442;2022-11-14T17:18:42;8.60;;;7.17;;
9827;SDS011;4953;48.952;9.442;2022-11-14T17:21:09;7.40;;;5.77;;
9827;SDS011;4953;48.952;9.442;2022-11-14T17:23:38;10.00;;;7.83;;
9827;SDS011;4953;48.952;9.442;2022-11-14T17:26:06;9.13;;;7.07;;
9827;SDS011;4953;48.952;9.442;2022-11-14T17:28:36;7.30;;;5.10;;
9827;SDS011;4953;48.952;9.442;2022-11-14T17:31:06;4.43;;;4.03;;
9827;SDS011;4953;48.952;9.442;2022-11-14T17:33:33;7.40;;;4.70;;
9827;SDS011;4953;48.952;9.442;2022-11-14T17:36:03;5.90;;;4.03;;
9827;SDS011;4953;48.952;9.442;2022-11-14T17:38:31;5.73;;;4.77;;
9827;SDS011;4953;48.952;9.442;2022-11-14T17:40:59;6.93;;;6.13;;
9827;SDS011;4953;48.952;9.442;2022-11-14T17:43:29;8.23;;;4.70;;
9827;SDS011;4953;48.952;9.442;2022-11-14T17:45:56;10.00;;;6.50;;
9827;SDS011;4953;48.952;9.442;2022-11-14T17:48:23;11.10;;;5.90;;
9827;SDS011;4953;48.952;9.442;2022-11-14T17:50:50;14.90;;;8.47;;
9827;SDS011;4953;48.952;9.442;2022-11-14T17:53:17;33.63;;;12.50;;
9827;SDS011;4953;48.952;9.442;2022-11-14T17:55:45;13.10;;;7.57;;
9827;SDS011;4953;48.952;9.442;2022-11-14T17:58:13;7.80;;;5.70;;
9827;SDS011;4953;48.952;9.442;2022-11-14T18:00:40;10.10;;;5.37;;
9827;SDS011;4953;48.952;9.442;2022-11-14T18:03:06;8.27;;;5.00;;
9827;SDS011;4953;48.952;9.442;2022-11-14T18:05:33;6.27;;;4.67;;
9827;SDS011;4953;48.952;9.442;2022-11-14T18:08:00;6.23;;;4.97;;
9827;SDS011;4953;48.952;9.442;2022-11-14T18:10:27;8.90;;;5.57;;
9827;SDS011;4953;48.952;9.442;2022-11-14T18:12:54;9.33;;;6.27;;
9827;SDS011;4953;48.952;9.442;2022-11-14T18:15:22;12.43;;;6.67;;
9827;SDS011;4953;48.952;9.442;2022-11-14T18:17:49;9.53;;;5.80;;
9827;SDS011;4953;48.952;9.442;2022-11-14T18:20:16;7.00;;;5.27;;
9827;SDS011;4953;48.952;9.442;2022-11-14T18:22:43;9.10;;;4.63;;
9827;SDS011;4953;48.952;9.442;2022-11-14T18:25:09;6.30;;;4.63;;
9827;SDS011;4953;48.952;9.442;2022-11-14T18:27:36;7.43;;;5.00;;
9827;SDS011;4953;48.952;9.442;2022-11-14T18:30:03;9.63;;;6.07;;
9827;SDS011;4953;48.952;9.442;2022-11-14T18:32:32;6.00;;;3.97;;
9827;SDS011;4953;48.952;9.442;2022-11-14T18:34:59;5.40;;;4.20;;
9827;SDS011;4953;48.952;9.442;2022-11-14T18:37:26;7.77;;;4.10;;
9827;SDS011;4953;48.952;9.442;2022-11-14T18:39:54;8.07;;;5.30;;
9827;SDS011;4953;48.952;9.442;2022-11-14T18:42:21;8.33;;;5.57;;
9827;SDS011;4953;48.952;9.442;2022-11-14T18:44:48;8.67;;;6.63;;
9827;SDS011;4953;48.952;9.442;2022-11-14T18:47:15;11.37;;;7.10;;
9827;SDS011;4953;48.952;9.442;2022-11-14T18:49:43;18.03;;;9.43;;
9827;SDS011;4953;48.952;9.442;2022-11-14T18:52:10;16.33;;;9.30;;
9827;SDS011;4953;48.952;9.442;2022-11-14T18:54:36;12.27;;;9.13;;
9827;SDS011;4953;48.952;9.442;2022-11-14T18:57:04;12.57;;;7.83;;
9827;SDS011;4953;48.952;9.442;2022-11-14T18:59:31;12.63;;;7.73;;
9827;SDS011;4953;48.952;9.442;2022-11-14T19:01:57;13.13;;;8.83;;
9827;SDS011;4953;48.952;9.442;2022-11-14T19:04:24;12.20;;;7.60;;
9827;SDS011;4953;48.952;9.442;2022-11-14T19:06:53;12.13;;;8.47;;
9827;SDS011;4953;48.952;9.442;2022-11-14T19:09:20;17.27;;;13.60;;
9827;SDS011;4953;48.952;9.442;2022-11-14T19:11:48;20.10;;;15.43;;
9827;SDS011;4953;48.952;9.442;2022-11-14T19:14:32;12.83;;;9.50;;
9827;SDS011;4953;48.952;9.442;2022-11-14T19:16:59;11.13;;;8.37;;
9827;SDS011;4953;48.952;9.442;2022-11-14T19:19:26;10.20;;;6.60;;
9827;SDS011;4953;48.952;9.442;2022-11-14T19:21:55;7.37;;;5.83;;
9827;SDS011;4953;48.952;9.442;2022-11-14T19:24:21;16.80;;;10.00;;
9827;SDS011;4953;48.952;9.442;2022-11-14T19:26:48;17.70;;;10.20;;
9827;SDS011;4953;48.952;9.442;2022-11-14T19:29:15;13.70;;;8.77;;
9827;SDS011;4953;48.952;9.442;2022-11-14T19:31:42;12.27;;;7.30;;
9827;SDS011;4953;48.952;9.442;2022-11-14T19:34:09;10.87;;;7.27;;
9827;SDS011;4953;48.952;9.442;2022-11-14T19:36:36;10.13;;;7.60;;
9827;SDS011;4953;48.952;9.442;2022-11-14T19:39:04;11.30;;;7.10;;
9827;SDS011;4953;48.952;9.442;2022-11-14T19:41:32;10.80;;;9.23;;
9827;SDS011;4953;48.952;9.442;2022-11-14T19:43:59;24.27;;;14.83;;
9827;SDS011;4953;48.952;9.442;2022-11-14T19:46:27;11.17;;;8.87;;
9827;SDS011;4953;48.952;9.442;2022-11-14T19:48:55;9.00;;;7.20;;
9827;SDS011;4953;48.952;9.442;2022-11-14T19:51:23;10.13;;;6.70;;
9827;SDS011;4953;48.952;9.442;2022-11-14T19:53:51;9.77;;;7.03;;
9827;SDS011;4953;48.952;9.442;2022-11-14T19:56:21;11.13;;;8.10;;
9827;SDS011;4953;48.952;9.442;2022-11-14T19:58:48;9.70;;;8.70;;
9827;SDS011;4953;48.952;9.442;2022-11-14T20:01:17;13.97;;;8.40;;
9827;SDS011;4953;48.952;9.442;2022-11-14T20:03:48;11.17;;;8.90;;
9827;SDS011;4953;48.952;9.442;2022-11-14T20:06:17;12.77;;;9.00;;
9827;SDS011;4953;48.952;9.442;2022-11-14T20:08:45;14.13;;;11.57;;
9827;SDS011;4953;48.952;9.442;2022-11-14T20:11:12;17.90;;;12.63;;
9827;SDS011;4953;48.952;9.442;2022-11-14T20:13:44;11.90;;;10.07;;
9827;SDS011;4953;48.952;9.442;2022-11-14T20:16:13;11.07;;;9.17;;
9827;SDS011;4953;48.952;9.442;2022-11-14T20:18:41;9.70;;;7.50;;
9827;SDS011;4953;48.952;9.442;2022-11-14T20:21:10;11.30;;;7.93;;
9827;SDS011;4953;48.952;9.442;2022-11-14T20:23:38;8.17;;;7.20;;
9827;SDS011;4953;48.952;9.442;2022-11-14T20:26:06;9.03;;;6.87;;
9827;SDS011;4953;48.952;9.442;2022-11-14T20:28:33;8.00;;;6.40;;
9827;SDS011;4953;48.952;9.442;2022-11-14T20:31:02;9.90;;;7.03;;
9827;SDS011;4953;48.952;9.442;2022-11-14T20:33:30;12.83;;;8.90;;
9827;SDS011;4953;48.952;9.442;2022-11-14T20:36:01;16.27;;;9.80;;
9827;SDS011;4953;48.952;9.442;2022-11-14T20:38:28;14.10;;;8.67;;
9827;SDS011;4953;48.952;9.442;2022-11-14T20:40:56;12.40;;;9.03;;
9827;SDS011;4953;48.952;9.442;2022-11-14T20:43:25;11.73;;;8.47;;
9827;SDS011;4953;48.952;9.442;2022-11-14T20:45:56;12.83;;;9.23;;
9827;SDS011;4953;48.952;9.442;2022-11-14T20:48:25;9.47;;;7.57;;
9827;SDS011;4953;48.952;9.442;2022-11-14T20:50:59;7.23;;;5.97;;
9827;SDS011;4953;48.952;9.442;2022-11-14T20:53:27;7.60;;;6.67;;
9827;SDS011;4953;48.952;9.442;2022-11-14T20:55:54;9.53;;;7.37;;